Time;durP1;ratioP1;P1;durP2;ratioP2;P2;SDS_P1;SDS_P2;PMS_P1;PMS_P2;Temp;Humidity;BMP_temperature;BMP_pressure;BME280_temperature;BME280_humidity;BME280_pressure;Samples;Min_cycle;Max_cycle;Signal;HPM_P1;HPM_P2
2021/09/12 00:00:00;;;;;;;;;19.25;19.00;;;;;;;;4992152;28;50944;-55
2021/09/12 00:02:25;;;;;;;;;20.75;18.75;;;;;;;;4988905;28;51205;-55
2021/09/12 00:04:51;;;;;;;;;23.00;21.25;;;;;;;;4991524;28;52444;-55
2021/09/12 00:07:16;;;;;;;;;19.50;18.50;;;;;;;;4990751;28;52126;-56
2021/09/12 00:09:41;;;;;;;;;23.25;21.75;;;;;;;;4992159;28;51190;-55
2021/09/12 00:12:07;;;;;;;;;16.00;15.00;;;;;;;;4991477;28;51135;-56
2021/09/12 00:14:32;;;;;;;;;13.00;13.00;;;;;;;;4991402;28;51136;-56
2021/09/12 00:16:57;;;;;;;;;15.00;14.00;;;;;;;;4992199;28;51055;-57
2021/09/12 00:19:24;;;;;;;;;20.25;17.50;;;;;;;;4991574;28;50872;-56
2021/09/12 00:21:49;;;;;;;;;12.33;12.33;;;;;;;;4991075;28;52764;-57
2021/09/12 00:24:15;;;;;;;;;14.33;13.33;;;;;;;;4973430;28;52228;-53
2021/09/12 00:26:40;;;;;;;;;12.67;12.67;;;;;;;;4991380;28;51086;-56
2021/09/12 00:29:05;;;;;;;;;13.50;13.00;;;;;;;;4992431;28;50786;-56
2021/09/12 00:31:30;;;;;;;;;10.00;9.00;;;;;;;;4991796;28;51355;-56
2021/09/12 00:33:56;;;;;;;;;11.00;10.50;;;;;;;;4991947;28;51943;-56
2021/09/12 00:36:21;;;;;;;;;11.67;10.00;;;;;;;;4972697;28;51009;-55
2021/09/12 00:38:46;;;;;;;;;12.33;12.00;;;;;;;;4991460;28;50880;-56
2021/09/12 00:41:11;;;;;;;;;13.25;11.25;;;;;;;;4989743;28;51107;-56
2021/09/12 00:43:37;;;;;;;;;12.50;12.00;;;;;;;;4993086;28;51901;-54
2021/09/12 00:46:06;;;;;;;;;11.00;11.00;;;;;;;;4994713;28;50918;-55
2021/09/12 00:48:32;;;;;;;;;13.00;12.25;;;;;;;;4994407;28;50972;-56
2021/09/12 00:50:57;;;;;;;;;13.25;12.25;;;;;;;;4976481;28;51098;-55
2021/09/12 00:53:23;;;;;;;;;18.25;16.50;;;;;;;;4994909;28;51103;-56
2021/09/12 00:55:50;;;;;;;;;16.75;16.25;;;;;;;;4994114;28;50968;-56
2021/09/12 00:58:15;;;;;;;;;16.50;15.75;;;;;;;;4995020;28;51151;-55
2021/09/12 01:00:42;;;;;;;;;15.50;15.25;;;;;;;;4994360;28;51169;-55
2021/09/12 01:03:08;;;;;;;;;17.75;15.75;;;;;;;;4994996;28;51972;-55
2021/09/12 01:05:33;;;;;;;;;18.50;18.50;;;;;;;;5000230;28;51186;-54
2021/09/12 01:07:58;;;;;;;;;16.75;16.00;;;;;;;;4994810;28;51006;-56
2021/09/12 01:10:23;;;;;;;;;18.25;16.50;;;;;;;;4995549;28;50908;-55
2021/09/12 01:12:48;;;;;;;;;17.00;16.50;;;;;;;;4994914;28;51003;-55
2021/09/12 01:15:13;;;;;;;;;16.00;16.00;;;;;;;;4994909;28;51059;-54
2021/09/12 01:17:39;;;;;;;;;16.00;14.75;;;;;;;;4995093;28;51096;-56
2021/09/12 01:20:04;;;;;;;;;12.50;11.00;;;;;;;;4995389;28;51063;-56
2021/09/12 01:22:30;;;;;;;;;16.50;15.00;;;;;;;;4994062;28;51640;-55
2021/09/12 01:24:55;;;;;;;;;14.75;14.75;;;;;;;;4995169;28;51090;-56
2021/09/12 01:27:20;;;;;;;;;15.00;15.00;;;;;;;;4993485;28;51211;-56
2021/09/12 01:29:46;;;;;;;;;18.75;18.75;;;;;;;;4995435;28;51112;-55
2021/09/12 01:32:11;;;;;;;;;15.00;15.00;;;;;;;;4994639;28;51550;-56
2021/09/12 01:34:36;;;;;;;;;15.50;15.00;;;;;;;;4994822;28;51587;-55
2021/09/12 01:37:02;;;;;;;;;15.75;14.25;;;;;;;;4995471;28;50921;-56
2021/09/12 01:39:27;;;;;;;;;14.75;14.50;;;;;;;;4993540;28;51216;-55
2021/09/12 01:41:52;;;;;;;;;17.00;16.50;;;;;;;;4994614;28;51076;-55
2021/09/12 01:44:23;;;;;;;;;15.00;15.00;;;;;;;;4993327;28;51198;-54
2021/09/12 01:46:49;;;;;;;;;14.00;13.75;;;;;;;;4994102;28;51066;-53
2021/09/12 01:49:15;;;;;;;;;14.67;12.00;;;;;;;;4994852;28;51248;-55
2021/09/12 01:51:40;;;;;;;;;11.67;11.00;;;;;;;;4992824;28;51777;-52
2021/09/12 01:54:05;;;;;;;;;18.50;17.25;;;;;;;;4996829;28;51091;-54
2021/09/12 01:56:31;;;;;;;;;14.75;14.75;;;;;;;;4993764;28;51163;-55
2021/09/12 01:58:56;;;;;;;;;10.33;10.00;;;;;;;;4993900;28;51163;-54
2021/09/12 02:01:21;;;;;;;;;10.00;9.50;;;;;;;;4993865;28;51063;-54
2021/09/12 02:03:47;;;;;;;;;10.67;10.67;;;;;;;;4991722;28;51134;-55
2021/09/12 02:06:12;;;;;;;;;13.00;10.33;;;;;;;;4992885;28;51199;-54
2021/09/12 02:08:37;;;;;;;;;8.00;8.00;;;;;;;;4994264;28;51143;-56
2021/09/12 02:11:03;;;;;;;;;11.33;11.33;;;;;;;;4993418;28;51983;-56
2021/09/12 02:13:28;;;;;;;;;12.33;11.33;;;;;;;;4994264;28;51027;-55
2021/09/12 02:15:53;;;;;;;;;9.33;8.67;;;;;;;;4993370;28;51099;-54
2021/09/12 02:18:18;;;;;;;;;13.67;13.00;;;;;;;;4994397;28;50906;-53
2021/09/12 02:20:44;;;;;;;;;10.00;10.00;;;;;;;;4993027;28;52197;-56
2021/09/12 02:23:09;;;;;;;;;9.67;9.67;;;;;;;;4992800;28;51073;-53
2021/09/12 02:25:34;;;;;;;;;10.00;9.67;;;;;;;;4993557;28;50977;-54
2021/09/12 02:28:00;;;;;;;;;10.67;9.00;;;;;;;;4994029;28;51175;-53
2021/09/12 02:30:25;;;;;;;;;11.67;10.00;;;;;;;;4993004;28;51823;-55
2021/09/12 02:32:51;;;;;;;;;13.00;12.00;;;;;;;;4992512;28;50852;-54
2021/09/12 02:35:16;;;;;;;;;10.00;9.00;;;;;;;;4992499;28;51180;-55
2021/09/12 02:37:41;;;;;;;;;11.33;11.00;;;;;;;;4992787;28;51472;-55
2021/09/12 02:40:07;;;;;;;;;10.00;10.00;;;;;;;;4992849;28;52015;-55
2021/09/12 02:42:32;;;;;;;;;13.67;12.33;;;;;;;;5000716;28;50925;-54
2021/09/12 02:44:57;;;;;;;;;15.33;13.33;;;;;;;;4992313;28;51114;-54
2021/09/12 02:47:22;;;;;;;;;15.50;13.75;;;;;;;;4993776;28;50907;-54
2021/09/12 02:49:47;;;;;;;;;9.67;9.67;;;;;;;;4992050;28;51791;-54
2021/09/12 02:52:13;;;;;;;;;9.50;9.50;;;;;;;;4990935;28;51206;-54
2021/09/12 02:54:38;;;;;;;;;14.50;12.25;;;;;;;;4993180;28;51121;-54
2021/09/12 02:57:03;;;;;;;;;13.50;12.50;;;;;;;;4993411;28;50913;-54
2021/09/12 02:59:28;;;;;;;;;10.25;9.00;;;;;;;;4993048;28;53636;-54
2021/09/12 03:01:54;;;;;;;;;9.75;9.50;;;;;;;;4993169;28;51137;-55
2021/09/12 03:04:19;;;;;;;;;15.00;14.75;;;;;;;;4993680;28;50997;-54
2021/09/12 03:06:44;;;;;;;;;10.00;10.00;;;;;;;;4993194;28;51382;-55
2021/09/12 03:09:09;;;;;;;;;14.50;14.00;;;;;;;;4993416;28;51064;-55
2021/09/12 03:11:35;;;;;;;;;11.33;10.67;;;;;;;;4992855;28;51047;-55
2021/09/12 03:14:00;;;;;;;;;14.75;14.50;;;;;;;;4993212;28;51208;-56
2021/09/12 03:16:25;;;;;;;;;14.25;13.25;;;;;;;;4993351;28;51080;-55
2021/09/12 03:18:51;;;;;;;;;16.25;15.00;;;;;;;;4993096;28;50958;-53
2021/09/12 03:21:16;;;;;;;;;13.50;13.50;;;;;;;;4992879;28;51029;-54
2021/09/12 03:23:42;;;;;;;;;13.75;13.50;;;;;;;;4993418;28;50980;-54
2021/09/12 03:26:07;;;;;;;;;14.50;14.50;;;;;;;;4993397;28;50933;-55
2021/09/12 03:28:32;;;;;;;;;15.00;13.50;;;;;;;;4993000;28;52101;-54
2021/09/12 03:30:57;;;;;;;;;13.00;12.00;;;;;;;;4993170;28;51068;-54
2021/09/12 03:33:23;;;;;;;;;12.00;11.00;;;;;;;;4993250;28;51162;-54
2021/09/12 03:35:48;;;;;;;;;12.33;11.67;;;;;;;;4975215;28;51163;-54
2021/09/12 03:38:13;;;;;;;;;12.75;12.50;;;;;;;;4992181;28;52199;-54
2021/09/12 03:40:39;;;;;;;;;18.00;16.50;;;;;;;;4992776;28;50992;-55
2021/09/12 03:43:04;;;;;;;;;13.67;13.00;;;;;;;;4992744;28;51011;-55
2021/09/12 03:45:29;;;;;;;;;13.33;13.00;;;;;;;;4993204;28;50818;-54
2021/09/12 03:47:54;;;;;;;;;14.25;13.75;;;;;;;;4992631;28;50944;-56
2021/09/12 03:50:20;;;;;;;;;17.75;17.50;;;;;;;;4993218;28;50940;-55
2021/09/12 03:52:45;;;;;;;;;14.50;13.75;;;;;;;;4992515;28;51167;-55
2021/09/12 03:55:11;;;;;;;;;16.25;16.25;;;;;;;;4992942;28;51195;-55
2021/09/12 03:57:36;;;;;;;;;15.75;13.75;;;;;;;;4992489;28;51681;-55
2021/09/12 04:00:02;;;;;;;;;17.00;16.00;;;;;;;;4992616;28;50898;-54
2021/09/12 04:02:28;;;;;;;;;13.00;13.00;;;;;;;;4992655;28;51142;-55
2021/09/12 04:04:53;;;;;;;;;13.75;12.75;;;;;;;;4999931;28;51426;-55
2021/09/12 04:07:18;;;;;;;;;13.00;13.00;;;;;;;;4997092;28;51884;-56
2021/09/12 04:09:43;;;;;;;;;14.50;13.75;;;;;;;;4992842;28;51001;-56
2021/09/12 04:12:09;;;;;;;;;13.00;13.00;;;;;;;;4992770;28;50925;-54
2021/09/12 04:14:34;;;;;;;;;13.75;12.50;;;;;;;;4975504;28;51091;-55
2021/09/12 04:16:59;;;;;;;;;13.00;12.75;;;;;;;;4992512;28;52109;-54
2021/09/12 04:19:25;;;;;;;;;14.33;13.00;;;;;;;;4994754;28;51049;-54
2021/09/12 04:21:50;;;;;;;;;15.00;14.00;;;;;;;;4995720;28;51202;-54
2021/09/12 04:24:15;;;;;;;;;12.00;12.00;;;;;;;;4996582;28;51896;-55
2021/09/12 04:26:40;;;;;;;;;15.25;13.50;;;;;;;;4995839;28;51884;-54
2021/09/12 04:29:06;;;;;;;;;12.00;12.00;;;;;;;;4995942;28;51154;-54
2021/09/12 04:31:31;;;;;;;;;12.00;12.00;;;;;;;;4995884;28;51227;-54
2021/09/12 04:33:56;;;;;;;;;13.00;12.67;;;;;;;;4996238;28;51167;-55
2021/09/12 04:36:22;;;;;;;;;11.67;11.00;;;;;;;;4995179;28;52491;-53
2021/09/12 04:38:47;;;;;;;;;13.50;13.00;;;;;;;;4995669;28;50890;-55
2021/09/12 04:41:12;;;;;;;;;13.33;13.33;;;;;;;;4995850;28;51245;-53
2021/09/12 04:43:38;;;;;;;;;11.75;11.75;;;;;;;;4995904;28;51086;-56
2021/09/12 04:46:03;;;;;;;;;11.00;11.00;;;;;;;;4995661;28;52722;-54
2021/09/12 04:48:28;;;;;;;;;12.75;11.25;;;;;;;;4995805;28;50839;-55
2021/09/12 04:50:54;;;;;;;;;13.25;12.25;;;;;;;;4995618;28;51077;-54
2021/09/12 04:53:20;;;;;;;;;14.00;14.00;;;;;;;;4995902;28;51355;-54
2021/09/12 04:55:45;;;;;;;;;12.50;12.25;;;;;;;;5000036;28;52782;-55
2021/09/12 04:58:10;;;;;;;;;15.00;13.25;;;;;;;;4995775;28;51029;-53
2021/09/12 05:00:35;;;;;;;;;13.00;12.00;;;;;;;;4995593;28;51044;-55
2021/09/12 05:03:00;;;;;;;;;12.25;11.50;;;;;;;;4995784;28;50919;-56
2021/09/12 05:05:25;;;;;;;;;11.50;11.50;;;;;;;;4995012;28;51250;-55
2021/09/12 05:07:54;;;;;;;;;12.25;12.25;;;;;;;;4994962;28;51132;-55
2021/09/12 05:10:19;;;;;;;;;12.25;12.00;;;;;;;;4995237;28;51115;-53
2021/09/12 05:12:44;;;;;;;;;15.25;14.25;;;;;;;;4995432;28;50945;-53
2021/09/12 05:15:10;;;;;;;;;14.25;11.00;;;;;;;;4995051;28;51637;-54
2021/09/12 05:17:35;;;;;;;;;12.50;12.00;;;;;;;;4981596;28;51099;-54
2021/09/12 05:20:00;;;;;;;;;13.00;13.00;;;;;;;;4995081;28;51165;-55
2021/09/12 05:22:25;;;;;;;;;13.75;13.75;;;;;;;;4977065;28;51274;-54
2021/09/12 05:24:50;;;;;;;;;14.00;12.50;;;;;;;;4994687;28;52009;-51
2021/09/12 05:27:16;;;;;;;;;11.25;11.25;;;;;;;;4994996;28;51065;-53
2021/09/12 05:29:41;;;;;;;;;13.50;13.50;;;;;;;;4994149;28;51191;-55
2021/09/12 05:32:06;;;;;;;;;13.50;12.25;;;;;;;;4994909;28;51306;-54
2021/09/12 05:34:31;;;;;;;;;13.50;13.50;;;;;;;;4994719;28;52012;-55
2021/09/12 05:36:57;;;;;;;;;11.25;11.00;;;;;;;;4994443;28;51048;-54
2021/09/12 05:39:22;;;;;;;;;12.50;12.25;;;;;;;;4994812;28;51126;-53
2021/09/12 05:41:47;;;;;;;;;14.75;14.00;;;;;;;;4995678;28;51326;-55
2021/09/12 05:44:12;;;;;;;;;13.00;13.00;;;;;;;;5002364;28;51771;-54
2021/09/12 05:46:37;;;;;;;;;12.00;11.00;;;;;;;;4994686;28;51056;-55
2021/09/12 05:49:03;;;;;;;;;11.50;11.00;;;;;;;;4994840;28;51064;-55
2021/09/12 05:51:28;;;;;;;;;13.00;12.00;;;;;;;;4994435;28;50891;-54
2021/09/12 05:53:53;;;;;;;;;13.00;13.00;;;;;;;;4994413;28;50986;-55
2021/09/12 05:56:19;;;;;;;;;12.00;11.25;;;;;;;;4994470;28;51139;-55
2021/09/12 05:58:44;;;;;;;;;13.00;12.50;;;;;;;;4995296;28;50976;-55
2021/09/12 06:01:11;;;;;;;;;12.00;12.00;;;;;;;;4995586;28;51159;-55
2021/09/12 06:03:37;;;;;;;;;15.25;15.00;;;;;;;;4994762;28;50858;-55
2021/09/12 06:06:02;;;;;;;;;13.50;13.25;;;;;;;;4994057;28;51125;-55
2021/09/12 06:08:27;;;;;;;;;15.00;13.00;;;;;;;;4994557;28;50961;-55
2021/09/12 06:10:52;;;;;;;;;13.50;13.25;;;;;;;;4994700;28;51064;-55
2021/09/12 06:13:18;;;;;;;;;15.75;15.25;;;;;;;;4994171;28;53085;-55
2021/09/12 06:15:43;;;;;;;;;14.50;13.00;;;;;;;;4993965;28;51077;-54
2021/09/12 06:18:08;;;;;;;;;16.50;15.00;;;;;;;;4994369;28;51259;-56
2021/09/12 06:20:34;;;;;;;;;14.50;14.00;;;;;;;;4994243;28;51139;-55
2021/09/12 06:22:59;;;;;;;;;16.50;16.00;;;;;;;;4993514;28;50961;-54
2021/09/12 06:25:24;;;;;;;;;15.75;14.00;;;;;;;;4994146;28;51044;-55
2021/09/12 06:27:49;;;;;;;;;15.50;14.75;;;;;;;;4994378;28;50974;-56
2021/09/12 06:30:17;;;;;;;;;18.25;15.25;;;;;;;;4994230;28;52047;-54
2021/09/12 06:32:42;;;;;;;;;13.00;12.50;;;;;;;;4993930;28;53029;-56
2021/09/12 06:35:08;;;;;;;;;12.75;12.75;;;;;;;;4993940;28;51089;-54
2021/09/12 06:37:33;;;;;;;;;14.50;13.50;;;;;;;;4993956;28;51094;-53
2021/09/12 06:39:58;;;;;;;;;16.75;15.00;;;;;;;;4993880;28;50830;-56
2021/09/12 06:42:23;;;;;;;;;15.00;14.75;;;;;;;;4993204;28;51050;-53
2021/09/12 06:44:49;;;;;;;;;15.00;14.00;;;;;;;;4993905;28;51016;-55
2021/09/12 06:47:14;;;;;;;;;14.33;14.00;;;;;;;;4993919;28;50949;-56
2021/09/12 06:49:39;;;;;;;;;13.00;13.00;;;;;;;;4993951;28;51239;-55
2021/09/12 06:52:04;;;;;;;;;11.67;11.33;;;;;;;;4993462;28;51799;-57
2021/09/12 06:54:30;;;;;;;;;14.00;14.00;;;;;;;;4993525;28;50914;-55
2021/09/12 06:56:55;;;;;;;;;14.00;13.67;;;;;;;;4993852;28;51049;-56
2021/09/12 06:59:20;;;;;;;;;17.00;14.00;;;;;;;;4993750;28;50882;-56
2021/09/12 07:01:46;;;;;;;;;15.67;14.00;;;;;;;;4993332;28;50978;-55
2021/09/12 07:04:11;;;;;;;;;13.67;12.67;;;;;;;;4993252;28;50904;-56
2021/09/12 07:06:36;;;;;;;;;14.67;14.00;;;;;;;;4999049;28;51009;-56
2021/09/12 07:09:02;;;;;;;;;14.50;14.00;;;;;;;;4993788;28;50851;-56
2021/09/12 07:11:27;;;;;;;;;13.67;13.00;;;;;;;;4993315;28;51006;-56
2021/09/12 07:13:53;;;;;;;;;12.67;12.67;;;;;;;;4983591;28;51780;-55
2021/09/12 07:16:18;;;;;;;;;14.00;12.67;;;;;;;;4993247;28;50944;-55
2021/09/12 07:18:43;;;;;;;;;14.33;13.67;;;;;;;;4993405;28;51086;-53
2021/09/12 07:21:08;;;;;;;;;10.33;10.33;;;;;;;;4992840;28;51809;-54
2021/09/12 07:23:33;;;;;;;;;13.67;12.67;;;;;;;;4993031;28;51013;-56
2021/09/12 07:25:59;;;;;;;;;11.00;11.00;;;;;;;;4993450;28;51131;-55
2021/09/12 07:28:24;;;;;;;;;8.33;7.00;;;;;;;;4993347;28;50938;-56
2021/09/12 07:30:49;;;;;;;;;6.33;6.33;;;;;;;;4993003;28;52076;-55
2021/09/12 07:33:15;;;;;;;;;10.00;9.33;;;;;;;;4993175;28;51198;-56
2021/09/12 07:35:40;;;;;;;;;8.00;8.00;;;;;;;;4993027;28;51086;-56
2021/09/12 07:38:05;;;;;;;;;8.33;8.33;;;;;;;;4992700;28;51333;-55
2021/09/12 07:40:30;;;;;;;;;7.67;7.67;;;;;;;;4992959;28;50966;-55
2021/09/12 07:42:56;;;;;;;;;8.00;8.00;;;;;;;;4975141;28;51229;-56
2021/09/12 07:45:21;;;;;;;;;8.33;7.33;;;;;;;;4993253;28;50894;-55
2021/09/12 07:47:47;;;;;;;;;8.67;8.33;;;;;;;;4993151;28;50918;-56
2021/09/12 07:50:12;;;;;;;;;7.33;7.33;;;;;;;;4992647;28;51035;-55
2021/09/12 07:52:42;;;;;;;;;8.00;8.00;;;;;;;;4992223;28;51103;-56
2021/09/12 07:55:07;;;;;;;;;7.00;7.00;;;;;;;;4996339;28;50843;-56
2021/09/12 07:57:32;;;;;;;;;7.33;7.33;;;;;;;;4996326;28;51340;-56
2021/09/12 07:59:58;;;;;;;;;7.67;7.67;;;;;;;;4995743;28;51780;-56
2021/09/12 08:02:23;;;;;;;;;6.33;6.33;;;;;;;;4995545;28;50908;-56
2021/09/12 08:04:48;;;;;;;;;6.33;6.33;;;;;;;;4995539;28;51076;-56
2021/09/12 08:07:13;;;;;;;;;7.00;7.00;;;;;;;;4996014;28;51067;-57
2021/09/12 08:09:38;;;;;;;;;7.00;7.00;;;;;;;;4996036;28;51193;-56
2021/09/12 08:12:04;;;;;;;;;8.00;7.00;;;;;;;;4995913;28;51052;-56
2021/09/12 08:14:29;;;;;;;;;7.67;7.67;;;;;;;;4995543;28;51119;-56
2021/09/12 08:16:54;;;;;;;;;5.67;5.33;;;;;;;;4995836;28;51039;-56
2021/09/12 08:19:20;;;;;;;;;6.67;6.67;;;;;;;;4995421;28;51014;-56
2021/09/12 08:21:45;;;;;;;;;9.00;8.67;;;;;;;;4995004;28;51334;-56
2021/09/12 08:24:10;;;;;;;;;7.33;7.33;;;;;;;;4995892;28;50917;-55
2021/09/12 08:26:36;;;;;;;;;6.67;6.67;;;;;;;;4995430;28;51072;-56
2021/09/12 08:29:01;;;;;;;;;7.67;7.67;;;;;;;;4977407;28;52215;-57
2021/09/12 08:31:26;;;;;;;;;12.00;11.67;;;;;;;;4995395;28;51067;-57
2021/09/12 08:33:51;;;;;;;;;9.00;9.00;;;;;;;;4995594;28;51047;-56
2021/09/12 08:36:17;;;;;;;;;8.00;7.00;;;;;;;;4995500;28;51065;-56
2021/09/12 08:38:42;;;;;;;;;8.00;8.00;;;;;;;;4995062;28;51971;-56
2021/09/12 08:41:08;;;;;;;;;8.00;8.00;;;;;;;;4995006;28;50969;-56
2021/09/12 08:43:34;;;;;;;;;10.00;9.00;;;;;;;;4997013;28;50977;-57
2021/09/12 08:46:00;;;;;;;;;6.00;6.00;;;;;;;;4995196;28;51355;-56
2021/09/12 08:48:25;;;;;;;;;5.33;5.33;;;;;;;;4994979;28;52812;-57
2021/09/12 08:50:50;;;;;;;;;5.33;5.33;;;;;;;;4994955;28;50970;-57
2021/09/12 08:53:16;;;;;;;;;6.00;6.00;;;;;;;;4994463;28;51064;-56
2021/09/12 08:55:41;;;;;;;;;3.67;3.33;;;;;;;;4995240;28;51326;-55
2021/09/12 08:58:06;;;;;;;;;4.00;4.00;;;;;;;;4994777;28;51818;-56
2021/09/12 09:00:31;;;;;;;;;5.00;5.00;;;;;;;;4977057;28;51035;-57
2021/09/12 09:02:58;;;;;;;;;4.67;4.00;;;;;;;;4994778;28;50968;-56
2021/09/12 09:05:28;;;;;;;;;5.00;4.67;;;;;;;;4976799;28;50947;-56
2021/09/12 09:08:02;;;;;;;;;3.33;2.67;;;;;;;;4994208;28;52907;-57
2021/09/12 09:10:27;;;;;;;;;4.67;4.67;;;;;;;;4994506;28;51031;-56
2021/09/12 09:12:55;;;;;;;;;4.67;4.00;;;;;;;;4994820;28;51067;-57
2021/09/12 09:15:21;;;;;;;;;3.00;3.00;;;;;;;;4994304;28;51313;-57
2021/09/12 09:17:50;;;;;;;;;4.00;4.00;;;;;;;;4994036;28;52643;-57
2021/09/12 09:20:19;;;;;;;;;3.33;2.67;;;;;;;;4994174;28;51305;-57
2021/09/12 09:22:46;;;;;;;;;4.00;4.00;;;;;;;;4993996;28;51236;-57
2021/09/12 09:25:13;;;;;;;;;3.00;3.00;;;;;;;;4994476;28;51058;-57
2021/09/12 09:28:00;;;;;;;;;4.33;3.00;;;;;;;;4994044;28;51231;-57
2021/09/12 09:30:26;;;;;;;;;4.00;4.00;;;;;;;;4994012;28;51003;-57
2021/09/12 09:32:51;;;;;;;;;3.00;3.00;;;;;;;;4994330;28;51175;-57
2021/09/12 09:35:21;;;;;;;;;3.67;3.00;;;;;;;;4994315;28;51054;-57
2021/09/12 09:37:47;;;;;;;;;4.00;3.67;;;;;;;;4993172;28;52227;-57
2021/09/12 09:40:13;;;;;;;;;4.33;3.67;;;;;;;;4993588;28;50990;-57
2021/09/12 09:42:45;;;;;;;;;1.00;1.00;;;;;;;;4993943;28;51004;-57
2021/09/12 09:45:13;;;;;;;;;2.00;2.00;;;;;;;;4994360;28;51299;-57
2021/09/12 09:47:40;;;;;;;;;2.33;2.33;;;;;;;;4993383;28;51226;-57
2021/09/12 09:50:25;;;;;;;;;4.67;4.67;;;;;;;;4993480;28;51115;-57
2021/09/12 09:52:52;;;;;;;;;5.33;5.00;;;;;;;;4993276;28;50985;-57
2021/09/12 09:55:19;;;;;;;;;4.33;4.00;;;;;;;;4993593;28;51141;-58
2021/09/12 09:57:54;;;;;;;;;8.33;8.33;;;;;;;;4992954;28;51816;-57
2021/09/12 10:00:20;;;;;;;;;8.33;8.33;;;;;;;;4993106;28;50843;-57
2021/09/12 10:02:46;;;;;;;;;3.67;3.67;;;;;;;;4992736;28;51056;-57
2021/09/12 10:05:13;;;;;;;;;4.00;3.33;;;;;;;;5000220;28;51146;-57
2021/09/12 10:07:39;;;;;;;;;4.33;3.67;;;;;;;;4993841;28;52998;-60
2021/09/12 10:10:05;;;;;;;;;6.00;5.67;;;;;;;;4993380;28;51057;-58
2021/09/12 10:12:31;;;;;;;;;4.67;4.67;;;;;;;;4993344;28;51055;-58
2021/09/12 10:14:58;;;;;;;;;5.00;5.00;;;;;;;;4993259;28;51043;-57
2021/09/12 10:17:25;;;;;;;;;6.67;5.33;;;;;;;;4973885;28;53872;-58
2021/09/12 10:20:04;;;;;;;;;5.67;5.67;;;;;;;;4992749;28;50878;-58
2021/09/12 10:22:29;;;;;;;;;6.67;6.00;;;;;;;;4993075;28;51020;-57
2021/09/12 10:25:00;;;;;;;;;5.00;5.00;;;;;;;;4993725;28;51207;-58
2021/09/12 10:27:43;;;;;;;;;4.00;3.67;;;;;;;;4992945;28;51876;-58
2021/09/12 10:30:18;;;;;;;;;3.33;3.33;;;;;;;;4992818;28;51015;-58
2021/09/12 10:32:44;;;;;;;;;5.33;5.00;;;;;;;;4993147;28;50985;-58
2021/09/12 10:35:14;;;;;;;;;4.67;4.67;;;;;;;;4992450;28;51234;-58
2021/09/12 10:37:39;;;;;;;;;4.00;4.00;;;;;;;;4992379;28;52201;-58
2021/09/12 10:40:04;;;;;;;;;3.67;3.67;;;;;;;;4992232;28;50973;-58
2021/09/12 10:42:41;;;;;;;;;6.25;6.00;;;;;;;;4974507;28;51119;-60
2021/09/12 10:45:23;;;;;;;;;5.00;5.00;;;;;;;;4992840;28;51297;-57
2021/09/12 10:47:49;;;;;;;;;4.50;4.50;;;;;;;;4991933;28;51135;-58
2021/09/12 10:50:33;;;;;;;;;5.00;4.00;;;;;;;;4991693;28;50962;-58
2021/09/12 10:52:58;;;;;;;;;6.50;6.50;;;;;;;;4992150;28;50970;-58
2021/09/12 10:55:23;;;;;;;;;5.00;4.00;;;;;;;;4994368;28;51061;-58
2021/09/12 10:57:49;;;;;;;;;4.67;4.67;;;;;;;;4974470;28;51401;-58
2021/09/12 11:00:16;;;;;;;;;5.00;5.00;;;;;;;;4992511;28;51136;-58
2021/09/12 11:02:47;;;;;;;;;4.00;4.00;;;;;;;;4991967;28;51056;-57
2021/09/12 11:05:25;;;;;;;;;16.25;15.50;;;;;;;;4992183;28;50944;-58
2021/09/12 11:07:54;;;;;;;;;7.75;7.00;;;;;;;;4991493;28;51097;-57
2021/09/12 11:10:38;;;;;;;;;2.67;2.67;;;;;;;;4991523;28;50828;-58
2021/09/12 11:13:04;;;;;;;;;7.33;7.33;;;;;;;;4992174;28;51065;-57
2021/09/12 11:15:29;;;;;;;;;7.50;7.25;;;;;;;;4991929;28;51119;-57
2021/09/12 11:17:54;;;;;;;;;5.00;5.00;;;;;;;;4992266;28;52249;-59
2021/09/12 11:20:20;;;;;;;;;6.33;6.33;;;;;;;;4992493;28;51040;-59
2021/09/12 11:22:51;;;;;;;;;6.00;6.00;;;;;;;;4991748;28;51091;-59
2021/09/12 11:25:19;;;;;;;;;7.00;7.00;;;;;;;;4991892;28;51102;-59
2021/09/12 11:27:45;;;;;;;;;5.67;5.33;;;;;;;;4990378;28;51936;-58
2021/09/12 11:30:10;;;;;;;;;6.00;5.00;;;;;;;;4991380;28;50892;-58
2021/09/12 11:32:35;;;;;;;;;5.67;5.00;;;;;;;;4991894;28;51118;-58
2021/09/12 11:35:01;;;;;;;;;6.67;6.67;;;;;;;;4992108;28;51024;-58
2021/09/12 11:37:26;;;;;;;;;7.00;7.00;;;;;;;;4973397;28;51455;-58
2021/09/12 11:39:55;;;;;;;;;4.67;4.67;;;;;;;;4991702;28;50848;-57
2021/09/12 11:42:21;;;;;;;;;6.00;6.00;;;;;;;;4991903;28;51150;-58
2021/09/12 11:44:48;;;;;;;;;5.33;5.33;;;;;;;;4998893;28;50921;-58
2021/09/12 11:47:15;;;;;;;;;5.33;4.67;;;;;;;;4991277;28;52029;-58
2021/09/12 11:49:41;;;;;;;;;6.00;6.00;;;;;;;;4991623;28;50931;-57
2021/09/12 11:52:08;;;;;;;;;6.00;6.00;;;;;;;;4990906;28;51140;-58
2021/09/12 11:54:35;;;;;;;;;7.00;7.00;;;;;;;;4991307;28;51028;-58
2021/09/12 11:57:02;;;;;;;;;5.00;5.00;;;;;;;;4991167;28;52142;-58
2021/09/12 11:59:29;;;;;;;;;6.00;6.00;;;;;;;;4973477;28;50982;-58
2021/09/12 12:01:55;;;;;;;;;9.00;9.00;;;;;;;;4991549;28;51168;-58
2021/09/12 12:04:21;;;;;;;;;6.67;6.67;;;;;;;;4991700;28;51807;-58
2021/09/12 12:06:47;;;;;;;;;6.33;6.33;;;;;;;;4990876;28;53338;-59
2021/09/12 12:09:15;;;;;;;;;5.00;5.00;;;;;;;;4991454;28;50994;-58
2021/09/12 12:11:42;;;;;;;;;7.00;7.00;;;;;;;;4991334;28;51041;-58
2021/09/12 12:14:16;;;;;;;;;6.00;6.00;;;;;;;;4990486;28;51064;-58
2021/09/12 12:16:42;;;;;;;;;6.67;5.67;;;;;;;;4991384;28;52020;-58
2021/09/12 12:19:10;;;;;;;;;7.00;7.00;;;;;;;;4991112;28;51216;-57
2021/09/12 12:21:36;;;;;;;;;8.00;6.33;;;;;;;;4991135;28;51141;-57
2021/09/12 12:24:08;;;;;;;;;6.67;6.00;;;;;;;;4973748;28;50972;-58
2021/09/12 12:26:48;;;;;;;;;7.33;7.33;;;;;;;;4990813;28;50988;-56
2021/09/12 12:29:23;;;;;;;;;7.67;7.67;;;;;;;;4991118;28;51013;-60
2021/09/12 12:31:48;;;;;;;;;7.33;7.00;;;;;;;;4990868;28;51032;-57
2021/09/12 12:34:33;;;;;;;;;5.00;5.00;;;;;;;;4991572;28;51179;-59
2021/09/12 12:36:59;;;;;;;;;9.00;7.67;;;;;;;;4990133;28;51179;-57
2021/09/12 12:39:24;;;;;;;;;7.00;7.00;;;;;;;;4991225;28;50945;-57
2021/09/12 12:41:51;;;;;;;;;7.00;7.00;;;;;;;;4994163;28;51284;-57
2021/09/12 12:44:16;;;;;;;;;8.00;7.00;;;;;;;;5005928;28;51253;-58
2021/09/12 12:46:42;;;;;;;;;7.67;7.67;;;;;;;;4994970;28;52017;-58
2021/09/12 12:49:08;;;;;;;;;8.67;8.67;;;;;;;;4976632;28;51008;-58
2021/09/12 12:51:33;;;;;;;;;8.33;7.67;;;;;;;;4993596;28;51087;-58
2021/09/12 12:54:01;;;;;;;;;7.00;6.00;;;;;;;;4994197;28;51077;-58
2021/09/12 12:56:29;;;;;;;;;7.00;7.00;;;;;;;;4993331;28;52474;-57
2021/09/12 12:58:54;;;;;;;;;5.00;4.33;;;;;;;;4993791;28;51139;-59
2021/09/12 13:01:19;;;;;;;;;8.00;8.00;;;;;;;;4976180;28;51116;-58
2021/09/12 13:03:45;;;;;;;;;10.00;10.00;;;;;;;;4994432;28;50910;-58
2021/09/12 13:06:12;;;;;;;;;7.00;7.00;;;;;;;;4993088;28;52497;-58
2021/09/12 13:08:38;;;;;;;;;10.67;10.67;;;;;;;;4993899;28;50925;-58
2021/09/12 13:11:04;;;;;;;;;5.00;5.00;;;;;;;;4993914;28;51331;-58
2021/09/12 13:13:29;;;;;;;;;7.00;7.00;;;;;;;;4993723;28;51116;-58
2021/09/12 13:15:54;;;;;;;;;6.67;6.67;;;;;;;;4993496;28;51087;-58
2021/09/12 13:18:20;;;;;;;;;8.33;8.33;;;;;;;;4993566;28;50886;-57
2021/09/12 13:20:46;;;;;;;;;5.67;5.67;;;;;;;;4958897;28;51230;-58
2021/09/12 13:23:12;;;;;;;;;6.00;6.00;;;;;;;;4991409;28;51130;-57
2021/09/12 13:25:37;;;;;;;;;7.33;6.67;;;;;;;;4992966;28;51916;-58
2021/09/12 13:28:03;;;;;;;;;7.00;7.00;;;;;;;;4975643;28;50975;-57
2021/09/12 13:30:28;;;;;;;;;7.33;6.67;;;;;;;;4992437;28;50814;-57
2021/09/12 13:32:54;;;;;;;;;6.00;5.33;;;;;;;;4993061;28;51130;-58
2021/09/12 13:35:19;;;;;;;;;10.00;10.00;;;;;;;;4991728;28;51824;-59
2021/09/12 13:37:45;;;;;;;;;7.33;6.67;;;;;;;;4984716;28;51072;-58
2021/09/12 13:40:12;;;;;;;;;7.33;6.33;;;;;;;;4992737;28;51092;-57
2021/09/12 13:42:38;;;;;;;;;7.00;7.00;;;;;;;;4992980;28;51033;-57
2021/09/12 13:45:04;;;;;;;;;8.00;8.00;;;;;;;;4992172;28;51574;-58
2021/09/12 13:47:30;;;;;;;;;7.00;7.00;;;;;;;;4992677;28;51140;-58
2021/09/12 13:49:55;;;;;;;;;4.67;4.00;;;;;;;;4992564;28;51262;-58
2021/09/12 13:52:20;;;;;;;;;5.33;5.33;;;;;;;;4991708;28;50908;-58
2021/09/12 13:54:45;;;;;;;;;6.33;6.00;;;;;;;;4992154;28;52358;-58
2021/09/12 13:57:11;;;;;;;;;7.33;7.00;;;;;;;;4992738;28;50897;-58
2021/09/12 13:59:36;;;;;;;;;7.00;7.00;;;;;;;;4992447;28;51014;-57
2021/09/12 14:02:01;;;;;;;;;7.00;7.00;;;;;;;;4992465;28;51164;-57
2021/09/12 14:04:27;;;;;;;;;6.00;5.50;;;;;;;;4992425;28;51278;-56
2021/09/12 14:06:52;;;;;;;;;5.00;5.00;;;;;;;;4992081;28;51002;-58
2021/09/12 14:09:17;;;;;;;;;9.33;7.33;;;;;;;;4992689;28;50886;-58
2021/09/12 14:11:44;;;;;;;;;43.50;35.00;;;;;;;;4992408;28;51091;-57
2021/09/12 14:14:09;;;;;;;;;7.00;7.00;;;;;;;;4992051;28;52340;-59
2021/09/12 14:16:34;;;;;;;;;5.00;5.00;;;;;;;;4992580;28;51109;-61
2021/09/12 14:18:59;;;;;;;;;6.00;6.00;;;;;;;;4992535;28;51072;-58
2021/09/12 14:21:25;;;;;;;;;7.00;6.00;;;;;;;;4997236;28;51067;-60